createdAt,value
2022-10-27T00:01:05.998Z,101269.75
2022-10-27T00:04:07.816Z,101268.22
2022-10-27T00:07:09.209Z,101269.44
2022-10-27T00:10:10.634Z,101280.97
2022-10-27T00:13:13.700Z,101274.09
2022-10-27T00:16:16.013Z,101273.31
2022-10-27T00:19:17.392Z,101270.75
2022-10-27T00:22:18.800Z,101269.78
2022-10-27T00:25:20.275Z,101274.19
2022-10-27T00:28:22.647Z,101274.19
2022-10-27T00:31:24.064Z,101282.97
2022-10-27T00:34:25.514Z,101283.34
2022-10-27T00:37:28.274Z,101287.91
2022-10-27T00:40:35.390Z,101293.09
2022-10-27T00:43:39.498Z,101296.09
2022-10-27T00:46:45.837Z,101298.06
2022-10-27T00:49:51.442Z,101295.56
2022-10-27T00:52:59.819Z,101297.50
2022-10-27T00:56:02.345Z,101299.31
2022-10-27T00:59:04.418Z,101295.06
2022-10-27T01:02:08.805Z,101290.78
2022-10-27T01:05:20.907Z,101292.47
2022-10-27T01:08:23.932Z,101287.19
2022-10-27T01:11:25.423Z,101273.91
2022-10-27T01:14:27.640Z,101272.06
2022-10-27T01:17:41.722Z,101272.06
2022-10-27T01:20:50.577Z,101273.84
2022-10-27T01:24:22.765Z,101274.06
2022-10-27T01:27:51.902Z,101280.19
2022-10-27T01:31:03.642Z,101276.50
2022-10-27T01:34:16.960Z,101270.16
2022-10-27T01:37:24.191Z,101268.34
2022-10-27T01:40:32.292Z,101264.72
2022-10-27T01:43:35.473Z,101259.47
2022-10-27T01:46:37.048Z,101263.00
2022-10-27T01:49:40.862Z,101266.56
2022-10-27T01:52:50.296Z,101249.88
2022-10-27T01:56:04.360Z,101258.84
2022-10-27T01:59:28.413Z,101267.72
2022-10-27T02:02:38.292Z,101258.84
2022-10-27T02:06:02.815Z,101258.78
2022-10-27T02:09:10.717Z,101256.03
2022-10-27T02:12:25.651Z,101252.59
2022-10-27T02:15:33.605Z,101266.84
2022-10-27T02:18:59.064Z,101260.69
2022-10-27T02:22:02.119Z,101259.75
2022-10-27T02:25:04.919Z,101260.59
2022-10-27T02:28:08.741Z,101260.56
2022-10-27T02:31:12.582Z,101261.34
2022-10-27T02:34:16.466Z,101254.09
2022-10-27T02:37:27.233Z,101260.28
2022-10-27T02:40:28.742Z,101256.81
2022-10-27T02:43:30.218Z,101260.38
2022-10-27T02:46:31.697Z,101265.91
2022-10-27T02:49:33.202Z,101260.63
2022-10-27T02:52:34.625Z,101258.97
2022-10-27T02:55:36.007Z,101262.53
2022-10-27T02:58:37.393Z,101268.75
2022-10-27T03:01:39.028Z,101262.75
2022-10-27T03:04:40.559Z,101263.84
2022-10-27T03:07:43.686Z,101262.19
2022-10-27T03:10:45.593Z,101264.09
2022-10-27T03:13:46.988Z,101267.59
2022-10-27T03:16:48.486Z,101269.47
2022-10-27T03:19:49.986Z,101268.66
2022-10-27T03:22:51.844Z,101274.13
2022-10-27T03:25:56.676Z,101264.44
2022-10-27T03:29:00.631Z,101274.25
2022-10-27T03:32:02.095Z,101269.13
2022-10-27T03:35:03.694Z,101270.09
2022-10-27T03:38:05.087Z,101264.97
2022-10-27T03:41:06.766Z,101261.41
2022-10-27T03:44:08.172Z,101261.22
2022-10-27T03:47:10.356Z,101253.31
2022-10-27T03:50:11.783Z,101255.06
2022-10-27T03:53:13.701Z,101246.00
2022-10-27T03:56:15.170Z,101259.34
2022-10-27T04:02:22.954Z,101238.28
2022-10-27T04:05:24.898Z,101237.63
2022-10-27T04:08:26.299Z,101242.03
2022-10-27T04:11:27.712Z,101234.25
2022-10-27T04:14:29.158Z,101233.56
2022-10-27T04:17:30.631Z,101241.78
2022-10-27T04:20:32.421Z,101242.72
2022-10-27T04:23:33.846Z,101249.72
2022-10-27T04:26:35.309Z,101252.25
2022-10-27T04:29:36.784Z,101252.19
2022-10-27T04:32:38.278Z,101244.97
2022-10-27T04:35:39.712Z,101252.72
2022-10-27T04:38:41.799Z,101249.94
2022-10-27T04:41:43.233Z,101248.91
2022-10-27T04:44:44.667Z,101252.31
2022-10-27T04:47:46.190Z,101261.78
2022-10-27T04:50:47.577Z,101255.44
2022-10-27T04:53:49.117Z,101253.38
2022-10-27T04:56:50.901Z,101251.59
2022-10-27T04:59:52.272Z,101241.81
2022-10-27T05:02:58.621Z,101251.50
2022-10-27T05:06:00.437Z,101245.50
2022-10-27T05:09:01.910Z,101248.19
2022-10-27T05:12:03.654Z,101245.63
2022-10-27T05:15:05.654Z,101247.47
2022-10-27T05:18:09.489Z,101249.25
2022-10-27T05:21:11.984Z,101246.56
2022-10-27T05:24:13.387Z,101251.88
2022-10-27T05:27:14.790Z,101255.44
2022-10-27T05:30:16.234Z,101259.06
2022-10-27T05:33:17.620Z,101269.63
2022-10-27T05:36:19.102Z,101277.59
2022-10-27T05:39:20.489Z,101264.50
2022-10-27T05:42:21.897Z,101265.47
2022-10-27T05:45:24.047Z,101256.69
2022-10-27T05:48:25.466Z,101255.06
2022-10-27T05:51:27.003Z,101248.91
2022-10-27T05:54:28.534Z,101260.34
2022-10-27T05:57:29.925Z,101255.06
2022-10-27T06:00:34.753Z,101251.56
2022-10-27T06:03:36.207Z,101254.00
2022-10-27T06:06:37.680Z,101254.09
2022-10-27T06:09:39.107Z,101265.47
2022-10-27T06:12:40.580Z,101265.47
2022-10-27T06:18:48.776Z,101259.34
2022-10-27T06:21:50.192Z,101264.50
2022-10-27T06:24:51.923Z,101266.19
2022-10-27T06:27:53.766Z,101268.59
2022-10-27T06:30:55.403Z,101265.94
2022-10-27T06:33:56.920Z,101266.81
2022-10-27T06:36:58.330Z,101264.00
2022-10-27T06:40:00.987Z,101273.41
2022-10-27T06:43:06.800Z,101267.13
2022-10-27T06:46:09.289Z,101260.59
2022-10-27T06:49:13.133Z,101256.63
2022-10-27T06:52:16.872Z,101270.47
2022-10-27T06:55:18.889Z,101279.03
2022-10-27T06:58:20.280Z,101279.78
2022-10-27T07:01:21.940Z,101282.28
2022-10-27T07:04:23.379Z,101286.38
2022-10-27T07:07:24.866Z,101288.06
2022-10-27T07:10:26.342Z,101290.28
2022-10-27T07:13:27.789Z,101295.53
2022-10-27T07:16:32.807Z,101297.16
2022-10-27T07:19:36.296Z,101298.66
2022-10-27T07:22:40.590Z,101285.00
2022-10-27T07:25:42.032Z,101294.53
2022-10-27T07:28:43.495Z,101306.75
2022-10-27T07:31:45.968Z,101304.09
2022-10-27T07:34:47.458Z,101301.22
2022-10-27T07:37:49.216Z,101308.03
2022-10-27T07:40:50.854Z,101308.88
2022-10-27T07:43:52.252Z,101306.91
2022-10-27T07:46:53.692Z,101319.81
2022-10-27T07:49:55.086Z,101316.94
2022-10-27T07:52:57.114Z,101327.16
2022-10-27T07:55:58.790Z,101333.91
2022-10-27T07:59:00.376Z,101329.69
2022-10-27T08:02:01.929Z,101328.50
2022-10-27T08:05:03.662Z,101329.94
2022-10-27T08:08:06.624Z,101326.00
2022-10-27T08:11:08.112Z,101329.22
2022-10-27T08:14:10.165Z,101330.66
2022-10-27T08:17:13.462Z,101323.38
2022-10-27T08:20:15.056Z,101326.72
2022-10-27T08:23:18.589Z,101336.09
2022-10-27T08:26:20.037Z,101331.25
2022-10-27T08:29:21.450Z,101332.47
2022-10-27T08:32:22.887Z,101325.97
2022-10-27T08:35:25.526Z,101329.91
2022-10-27T08:38:29.270Z,101329.66
2022-10-27T08:41:39.656Z,101320.38
2022-10-27T08:44:57.181Z,101327.59
2022-10-27T08:48:00.321Z,101334.50
2022-10-27T08:51:01.882Z,101341.41
2022-10-27T08:54:05.909Z,101345.16
2022-10-27T08:57:13.398Z,101341.56
2022-10-27T09:00:15.191Z,101336.22
2022-10-27T09:03:45.493Z,101340.22
2022-10-27T09:07:09.956Z,101345.31
2022-10-27T09:10:49.885Z,101335.00
2022-10-27T09:14:28.962Z,101329.75
2022-10-27T09:17:42.861Z,101333.59
2022-10-27T09:20:55.114Z,101324.78
2022-10-27T09:24:02.055Z,101325.50
2022-10-27T09:27:04.865Z,101332.28
2022-10-27T09:30:10.697Z,101328.28
2022-10-27T09:33:19.489Z,101331.44
2022-10-27T09:36:23.358Z,101330.69
2022-10-27T09:39:24.943Z,101332.47
2022-10-27T09:42:28.277Z,101334.06
2022-10-27T09:45:29.668Z,101335.84
2022-10-27T09:48:31.494Z,101330.47
2022-10-27T09:51:51.808Z,101334.31
2022-10-27T09:54:55.941Z,101331.81
2022-10-27T09:58:02.246Z,101327.63
2022-10-27T10:01:05.333Z,101323.16
2022-10-27T10:04:17.360Z,101319.06
2022-10-27T10:07:39.532Z,101312.03
2022-10-27T10:10:54.588Z,101316.38
2022-10-27T10:14:01.122Z,101309.06
2022-10-27T10:17:02.560Z,101312.34
2022-10-27T10:20:06.184Z,101312.44
2022-10-27T10:23:24.038Z,101314.75
2022-10-27T10:26:28.918Z,101313.13
2022-10-27T10:29:50.707Z,101315.22
2022-10-27T10:32:55.840Z,101313.78
2022-10-27T10:35:58.298Z,101311.13
2022-10-27T10:39:00.868Z,101308.59
2022-10-27T10:42:18.400Z,101310.47
2022-10-27T10:45:30.268Z,101306.25
2022-10-27T10:48:39.966Z,101306.59
2022-10-27T10:51:41.371Z,101300.47
2022-10-27T10:54:44.712Z,101301.75
2022-10-27T10:57:48.097Z,101291.06
2022-10-27T11:00:56.000Z,101279.97
2022-10-27T11:03:57.510Z,101283.75
2022-10-27T11:07:07.664Z,101286.50
2022-10-27T11:10:23.966Z,101274.50
2022-10-27T11:16:51.939Z,101274.13
2022-10-27T11:19:57.314Z,101262.28
2022-10-27T11:23:00.838Z,101246.81
2022-10-27T11:26:03.428Z,101243.47
2022-10-27T11:29:17.921Z,101234.38
2022-10-27T11:32:44.881Z,101229.28
2022-10-27T11:36:10.270Z,101232.47
2022-10-27T11:39:30.081Z,101232.00
2022-10-27T11:42:41.414Z,101226.72
2022-10-27T11:45:48.252Z,101227.28
2022-10-27T11:49:10.069Z,101226.63
2022-10-27T11:52:17.222Z,101220.84
2022-10-27T11:55:22.140Z,101211.38
2022-10-27T11:58:37.582Z,101207.38
2022-10-27T12:01:46.498Z,101212.00
2022-10-27T12:04:57.154Z,101205.94
2022-10-27T12:08:08.952Z,101210.03
2022-10-27T12:11:29.558Z,101205.53
2022-10-27T12:14:51.590Z,101207.69
2022-10-27T12:18:09.180Z,101213.03
2022-10-27T12:21:25.147Z,101206.97
2022-10-27T12:24:38.470Z,101186.38
2022-10-27T12:27:44.637Z,101195.22
2022-10-27T12:30:47.850Z,101192.75
2022-10-27T12:33:55.424Z,101187.00
2022-10-27T12:37:15.588Z,101183.28
2022-10-27T12:40:35.213Z,101182.47
2022-10-27T12:44:02.036Z,101192.25
2022-10-27T12:47:24.829Z,101176.31
2022-10-27T12:50:57.272Z,101176.63
2022-10-27T12:54:05.358Z,101166.13
2022-10-27T12:57:18.062Z,101163.22
2022-10-27T13:03:45.934Z,101160.13
2022-10-27T13:07:13.227Z,101161.09
2022-10-27T13:10:31.605Z,101154.13
2022-10-27T13:13:52.051Z,101154.56
2022-10-27T13:20:44.121Z,101152.63
2022-10-27T13:23:56.886Z,101159.50
2022-10-27T13:27:14.067Z,101153.72
2022-10-27T13:30:20.250Z,101158.75
2022-10-27T13:33:36.532Z,101158.25
2022-10-27T13:36:38.455Z,101146.69
2022-10-27T13:39:45.729Z,101141.13
2022-10-27T13:42:49.782Z,101142.19
2022-10-27T13:45:55.885Z,101146.28
2022-10-27T13:48:57.278Z,101132.19
2022-10-27T13:52:15.003Z,101145.72
2022-10-27T13:55:28.628Z,101137.88
2022-10-27T13:58:51.478Z,101143.53
2022-10-27T14:01:59.570Z,101137.88
2022-10-27T14:05:04.293Z,101138.50
2022-10-27T14:08:21.489Z,101132.94
2022-10-27T14:11:27.319Z,101130.78
2022-10-27T14:14:33.536Z,101129.28
2022-10-27T14:17:34.989Z,101128.63
2022-10-27T14:20:38.370Z,101130.38
2022-10-27T14:23:40.445Z,101124.78
2022-10-27T14:26:41.846Z,101124.47
2022-10-27T14:29:43.684Z,101119.66
2022-10-27T14:32:45.163Z,101124.16
2022-10-27T14:35:46.684Z,101119.66
2022-10-27T14:38:54.615Z,101118.78
2022-10-27T14:42:04.568Z,101117.28
2022-10-27T14:45:13.172Z,101116.72
2022-10-27T14:48:27.292Z,101117.91
2022-10-27T14:51:33.494Z,101107.78
2022-10-27T14:54:36.044Z,101115.72
2022-10-27T14:57:37.496Z,101110.97
2022-10-27T15:00:38.886Z,101112.66
2022-10-27T15:06:45.194Z,101106.13
2022-10-27T15:09:52.729Z,101112.84
2022-10-27T15:12:59.288Z,101109.94
2022-10-27T15:16:06.956Z,101107.00
2022-10-27T15:19:14.701Z,101117.13
2022-10-27T15:22:17.937Z,101111.41
2022-10-27T15:25:21.474Z,101120.50
2022-10-27T15:28:30.988Z,101117.53
2022-10-27T15:31:39.869Z,101117.34
2022-10-27T15:34:41.325Z,101122.22
2022-10-27T15:37:42.704Z,101116.56
2022-10-27T15:40:45.246Z,101112.69
2022-10-27T15:44:03.244Z,101122.78
2022-10-27T15:47:37.281Z,101123.09
2022-10-27T15:50:41.711Z,101126.59
2022-10-27T15:53:52.499Z,101126.81
2022-10-27T15:56:55.045Z,101117.44
2022-10-27T16:00:17.854Z,101128.53
2022-10-27T16:03:34.245Z,101118.22
2022-10-27T16:06:36.218Z,101123.13
2022-10-27T16:09:42.722Z,101127.06
2022-10-27T16:12:44.574Z,101124.13
2022-10-27T16:15:50.248Z,101121.09
2022-10-27T16:18:52.435Z,101122.53
2022-10-27T16:21:54.832Z,101117.47
2022-10-27T16:24:56.576Z,101118.81
2022-10-27T16:27:59.954Z,101112.41
2022-10-27T16:31:01.366Z,101126.44
2022-10-27T16:34:03.527Z,101123.25
2022-10-27T16:37:30.178Z,101122.13
2022-10-27T16:40:33.380Z,101113.81
2022-10-27T16:43:37.757Z,101122.56
2022-10-27T16:46:39.950Z,101114.13
2022-10-27T16:49:41.500Z,101119.84
2022-10-27T16:52:43.131Z,101126.63
2022-10-27T16:55:44.537Z,101123.81
2022-10-27T16:58:46.315Z,101121.41
2022-10-27T17:01:49.949Z,101121.66
2022-10-27T17:04:51.417Z,101120.28
2022-10-27T17:07:53.209Z,101118.91
2022-10-27T17:10:55.450Z,101121.66
2022-10-27T17:13:57.037Z,101122.88
2022-10-27T17:16:58.422Z,101117.88
2022-10-27T17:19:59.815Z,101114.97
2022-10-27T17:23:04.881Z,101128.09
2022-10-27T17:26:09.984Z,101124.81
2022-10-27T17:29:11.362Z,101124.88
2022-10-27T17:32:12.765Z,101126.63
2022-10-27T17:35:17.566Z,101131.53
2022-10-27T17:38:18.959Z,101133.69
2022-10-27T17:41:20.828Z,101137.91
2022-10-27T17:44:22.334Z,101143.25
2022-10-27T17:47:23.725Z,101141.78
2022-10-27T17:50:25.124Z,101147.53
2022-10-27T17:53:26.664Z,101145.44
2022-10-27T17:56:36.151Z,101149.22
2022-10-27T17:59:37.672Z,101148.53
2022-10-27T18:02:39.349Z,101157.16
2022-10-27T18:05:40.818Z,101156.53
2022-10-27T18:08:42.621Z,101155.81
2022-10-27T18:11:44.811Z,101164.69
2022-10-27T18:14:46.198Z,101166.50
2022-10-27T18:17:49.685Z,101171.78
2022-10-27T18:20:51.110Z,101175.22
2022-10-27T18:23:58.810Z,101177.03
2022-10-27T18:27:00.196Z,101186.84
2022-10-27T18:30:02.216Z,101185.72
2022-10-27T18:33:03.624Z,101187.72
2022-10-27T18:36:07.654Z,101183.25
2022-10-27T18:39:16.813Z,101176.66
2022-10-27T18:42:18.243Z,101179.50
2022-10-27T18:45:19.620Z,101179.56
2022-10-27T18:48:21.030Z,101165.22
2022-10-27T18:51:23.154Z,101171.47
2022-10-27T18:54:24.553Z,101181.22
2022-10-27T18:57:25.962Z,101179.31
2022-10-27T19:00:27.406Z,101180.44
2022-10-27T19:03:28.812Z,101176.03
2022-10-27T19:06:32.454Z,101178.88
2022-10-27T19:09:33.938Z,101189.06
2022-10-27T19:12:35.326Z,101185.66
2022-10-27T19:15:36.816Z,101197.31
2022-10-27T19:18:38.549Z,101202.13
2022-10-27T19:21:39.965Z,101195.53
2022-10-27T19:24:41.361Z,101196.47
2022-10-27T19:27:42.804Z,101193.97
2022-10-27T19:30:52.828Z,101188.09
2022-10-27T19:33:56.380Z,101179.91
2022-10-27T19:36:57.845Z,101179.38
2022-10-27T19:39:59.233Z,101177.00
2022-10-27T19:43:00.622Z,101174.19
2022-10-27T19:46:02.056Z,101171.72
2022-10-27T19:49:08.288Z,101164.72
2022-10-27T19:52:09.756Z,101160.34
2022-10-27T19:55:11.346Z,101165.59
2022-10-27T19:58:12.757Z,101164.84
2022-10-27T20:01:50.549Z,101174.94
2022-10-27T20:04:53.525Z,101160.34
2022-10-27T20:07:55.032Z,101167.91
2022-10-27T20:10:56.421Z,101165.47
2022-10-27T20:13:58.696Z,101170.97
2022-10-27T20:17:00.136Z,101170.28
2022-10-27T20:20:01.619Z,101174.28
2022-10-27T20:23:03.301Z,101171.56
2022-10-27T20:26:28.000Z,101169.81
2022-10-27T20:29:30.626Z,101169.19
2022-10-27T20:32:33.920Z,101164.91
2022-10-27T20:35:35.324Z,101176.25
2022-10-27T20:38:37.767Z,101167.69
2022-10-27T20:41:39.212Z,101161.63
2022-10-27T20:44:41.190Z,101157.59
2022-10-27T20:47:43.257Z,101164.09
2022-10-27T20:50:54.458Z,101169.53
2022-10-27T20:53:55.992Z,101159.03
2022-10-27T20:56:57.449Z,101166.88
2022-10-27T20:59:58.839Z,101176.59
2022-10-27T21:03:00.255Z,101180.97
2022-10-27T21:06:01.911Z,101178.31
2022-10-27T21:09:06.485Z,101176.59
2022-10-27T21:12:08.302Z,101181.63
2022-10-27T21:15:10.066Z,101170.34
2022-10-27T21:18:11.455Z,101173.16
2022-10-27T21:21:14.484Z,101161.41
2022-10-27T21:24:17.374Z,101166.88
2022-10-27T21:27:20.078Z,101154.72
2022-10-27T21:30:22.509Z,101155.72
2022-10-27T21:33:27.469Z,101155.56
2022-10-27T21:36:28.991Z,101157.59
2022-10-27T21:39:30.433Z,101157.53
2022-10-27T21:42:31.864Z,101161.34
2022-10-27T21:45:33.246Z,101167.53
2022-10-27T21:48:34.771Z,101175.81
2022-10-27T21:51:36.241Z,101174.09
2022-10-27T21:54:37.621Z,101167.84
2022-10-27T21:57:39.135Z,101170.25
2022-10-27T22:00:40.541Z,101167.78
2022-10-27T22:03:43.360Z,101177.56
2022-10-27T22:06:44.848Z,101172.25
2022-10-27T22:09:46.278Z,101180.22
2022-10-27T22:12:47.743Z,101173.22
2022-10-27T22:15:49.158Z,101170.66
2022-10-27T22:18:58.335Z,101176.91
2022-10-27T22:21:59.885Z,101163.31
2022-10-27T22:25:01.364Z,101163.22
2022-10-27T22:28:02.783Z,101156.03
2022-10-27T22:31:26.287Z,101170.25
2022-10-27T22:34:27.724Z,101169.25
2022-10-27T22:37:29.201Z,101162.13
2022-10-27T22:40:30.698Z,101161.34
2022-10-27T22:43:32.355Z,101151.66
2022-10-27T22:46:34.580Z,101151.56
2022-10-27T22:49:36.777Z,101150.78
2022-10-27T22:52:38.308Z,101149.16
2022-10-27T22:55:39.776Z,101144.44
2022-10-27T22:58:41.750Z,101144.56
2022-10-27T23:01:43.878Z,101146.31
2022-10-27T23:04:45.392Z,101147.22
2022-10-27T23:07:46.760Z,101147.25
2022-10-27T23:10:55.777Z,101133.94
2022-10-27T23:13:57.281Z,101141.94
2022-10-27T23:16:59.142Z,101142.16
2022-10-27T23:20:01.574Z,101144.03
2022-10-27T23:23:04.607Z,101143.25
2022-10-27T23:26:06.401Z,101152.03
2022-10-27T23:29:11.599Z,101162.03
2022-10-27T23:32:12.978Z,101162.31
2022-10-27T23:35:14.642Z,101158.69
2022-10-27T23:38:16.047Z,101151.38
2022-10-27T23:41:19.038Z,101143.47
2022-10-27T23:44:20.472Z,101151.22
2022-10-27T23:47:21.903Z,101147.69
2022-10-27T23:50:23.278Z,101153.06
2022-10-27T23:53:25.730Z,101160.94
2022-10-27T23:56:27.255Z,101167.41
2022-10-27T23:59:28.636Z,101164.69
